sensor_id;sensor_type;location;lat;lon;timestamp;P1;durP1;ratioP1;P2;durP2;ratioP2
13785;SDS011;47474;48.824;9.384;2024-03-06T00:00:48;7.50;;;6.30;;
13785;SDS011;47474;48.824;9.384;2024-03-06T00:03:15;8.33;;;7.10;;
13785;SDS011;47474;48.824;9.384;2024-03-06T00:05:41;7.10;;;6.37;;
13785;SDS011;47474;48.824;9.384;2024-03-06T00:08:10;8.53;;;6.90;;
13785;SDS011;47474;48.824;9.384;2024-03-06T00:10:36;6.77;;;6.03;;
13785;SDS011;47474;48.824;9.384;2024-03-06T00:13:03;8.10;;;6.57;;
13785;SDS011;47474;48.824;9.384;2024-03-06T00:15:30;9.07;;;7.23;;
13785;SDS011;47474;48.824;9.384;2024-03-06T00:17:56;7.33;;;6.43;;
13785;SDS011;47474;48.824;9.384;2024-03-06T00:20:23;8.17;;;6.50;;
13785;SDS011;47474;48.824;9.384;2024-03-06T00:22:50;7.50;;;6.70;;
13785;SDS011;47474;48.824;9.384;2024-03-06T00:25:18;9.50;;;6.50;;
13785;SDS011;47474;48.824;9.384;2024-03-06T00:27:44;8.50;;;6.47;;
13785;SDS011;47474;48.824;9.384;2024-03-06T00:30:11;7.97;;;6.53;;
13785;SDS011;47474;48.824;9.384;2024-03-06T00:32:37;7.03;;;6.23;;
13785;SDS011;47474;48.824;9.384;2024-03-06T00:35:04;8.57;;;6.93;;
13785;SDS011;47474;48.824;9.384;2024-03-06T00:37:31;8.83;;;6.57;;
13785;SDS011;47474;48.824;9.384;2024-03-06T00:39:58;7.20;;;6.50;;
13785;SDS011;47474;48.824;9.384;2024-03-06T00:42:26;7.20;;;5.97;;
13785;SDS011;47474;48.824;9.384;2024-03-06T00:44:52;7.17;;;6.30;;
13785;SDS011;47474;48.824;9.384;2024-03-06T00:47:19;7.50;;;6.70;;
13785;SDS011;47474;48.824;9.384;2024-03-06T00:49:46;7.30;;;6.50;;
13785;SDS011;47474;48.824;9.384;2024-03-06T00:52:13;10.00;;;6.60;;
13785;SDS011;47474;48.824;9.384;2024-03-06T00:54:39;7.20;;;6.50;;
13785;SDS011;47474;48.824;9.384;2024-03-06T00:57:06;8.93;;;7.67;;
13785;SDS011;47474;48.824;9.384;2024-03-06T00:59:34;6.93;;;6.33;;
13785;SDS011;47474;48.824;9.384;2024-03-06T01:02:00;7.47;;;6.77;;
13785;SDS011;47474;48.824;9.384;2024-03-06T01:04:26;8.53;;;6.93;;
13785;SDS011;47474;48.824;9.384;2024-03-06T01:06:53;7.47;;;6.40;;
13785;SDS011;47474;48.824;9.384;2024-03-06T01:09:19;7.70;;;6.90;;
13785;SDS011;47474;48.824;9.384;2024-03-06T01:11:46;8.20;;;6.70;;
13785;SDS011;47474;48.824;9.384;2024-03-06T01:14:13;7.63;;;6.23;;
13785;SDS011;47474;48.824;9.384;2024-03-06T01:16:40;7.90;;;6.97;;
13785;SDS011;47474;48.824;9.384;2024-03-06T01:19:07;6.80;;;6.10;;
13785;SDS011;47474;48.824;9.384;2024-03-06T01:21:34;7.73;;;6.90;;
13785;SDS011;47474;48.824;9.384;2024-03-06T01:24:00;8.43;;;6.57;;
13785;SDS011;47474;48.824;9.384;2024-03-06T01:26:27;8.47;;;7.10;;
13785;SDS011;47474;48.824;9.384;2024-03-06T01:28:53;9.67;;;6.73;;
13785;SDS011;47474;48.824;9.384;2024-03-06T01:31:20;7.80;;;6.30;;
13785;SDS011;47474;48.824;9.384;2024-03-06T01:33:48;8.87;;;6.30;;
13785;SDS011;47474;48.824;9.384;2024-03-06T01:36:14;8.40;;;6.50;;
13785;SDS011;47474;48.824;9.384;2024-03-06T01:38:41;6.60;;;6.00;;
13785;SDS011;47474;48.824;9.384;2024-03-06T01:41:10;10.87;;;6.77;;
13785;SDS011;47474;48.824;9.384;2024-03-06T01:43:37;7.27;;;6.57;;
13785;SDS011;47474;48.824;9.384;2024-03-06T01:46:04;8.27;;;6.93;;
13785;SDS011;47474;48.824;9.384;2024-03-06T01:48:31;8.13;;;6.97;;
13785;SDS011;47474;48.824;9.384;2024-03-06T01:50:59;7.93;;;6.57;;
13785;SDS011;47474;48.824;9.384;2024-03-06T01:53:29;9.47;;;6.80;;
13785;SDS011;47474;48.824;9.384;2024-03-06T01:55:58;8.47;;;6.87;;
13785;SDS011;47474;48.824;9.384;2024-03-06T01:58:25;8.73;;;7.47;;
13785;SDS011;47474;48.824;9.384;2024-03-06T02:00:51;8.20;;;7.00;;
13785;SDS011;47474;48.824;9.384;2024-03-06T02:03:18;9.23;;;6.67;;
13785;SDS011;47474;48.824;9.384;2024-03-06T02:05:45;8.63;;;7.47;;
13785;SDS011;47474;48.824;9.384;2024-03-06T02:08:14;8.23;;;7.20;;
13785;SDS011;47474;48.824;9.384;2024-03-06T02:10:41;8.00;;;7.20;;
13785;SDS011;47474;48.824;9.384;2024-03-06T02:13:08;8.37;;;6.77;;
13785;SDS011;47474;48.824;9.384;2024-03-06T02:15:35;8.83;;;6.70;;
13785;SDS011;47474;48.824;9.384;2024-03-06T02:18:04;7.60;;;6.63;;
13785;SDS011;47474;48.824;9.384;2024-03-06T02:20:32;8.30;;;6.90;;
13785;SDS011;47474;48.824;9.384;2024-03-06T02:22:59;8.10;;;7.17;;
13785;SDS011;47474;48.824;9.384;2024-03-06T02:25:26;10.20;;;6.80;;
13785;SDS011;47474;48.824;9.384;2024-03-06T02:27:53;8.17;;;7.33;;
13785;SDS011;47474;48.824;9.384;2024-03-06T02:30:19;6.83;;;6.07;;
13785;SDS011;47474;48.824;9.384;2024-03-06T02:32:46;7.47;;;6.70;;
13785;SDS011;47474;48.824;9.384;2024-03-06T02:35:13;7.90;;;7.00;;
13785;SDS011;47474;48.824;9.384;2024-03-06T02:37:42;8.13;;;7.33;;
13785;SDS011;47474;48.824;9.384;2024-03-06T02:40:09;9.40;;;7.10;;
13785;SDS011;47474;48.824;9.384;2024-03-06T02:42:36;7.20;;;6.50;;
13785;SDS011;47474;48.824;9.384;2024-03-06T02:45:04;8.37;;;7.30;;
13785;SDS011;47474;48.824;9.384;2024-03-06T02:47:32;7.60;;;6.90;;
13785;SDS011;47474;48.824;9.384;2024-03-06T02:49:58;7.07;;;6.37;;
13785;SDS011;47474;48.824;9.384;2024-03-06T02:52:25;8.13;;;6.87;;
13785;SDS011;47474;48.824;9.384;2024-03-06T02:54:55;8.53;;;6.60;;
13785;SDS011;47474;48.824;9.384;2024-03-06T02:57:22;8.77;;;6.87;;
13785;SDS011;47474;48.824;9.384;2024-03-06T02:59:48;7.20;;;6.43;;
13785;SDS011;47474;48.824;9.384;2024-03-06T03:02:15;9.17;;;7.23;;
13785;SDS011;47474;48.824;9.384;2024-03-06T03:04:42;7.70;;;6.27;;
13785;SDS011;47474;48.824;9.384;2024-03-06T03:07:08;8.03;;;6.67;;
13785;SDS011;47474;48.824;9.384;2024-03-06T03:09:35;7.73;;;5.67;;
13785;SDS011;47474;48.824;9.384;2024-03-06T03:12:04;7.57;;;6.57;;
13785;SDS011;47474;48.824;9.384;2024-03-06T03:14:31;8.53;;;5.70;;
13785;SDS011;47474;48.824;9.384;2024-03-06T03:16:58;8.23;;;6.87;;
13785;SDS011;47474;48.824;9.384;2024-03-06T03:19:25;9.03;;;6.73;;
13785;SDS011;47474;48.824;9.384;2024-03-06T03:21:51;8.97;;;6.63;;
13785;SDS011;47474;48.824;9.384;2024-03-06T03:24:18;8.47;;;6.40;;
13785;SDS011;47474;48.824;9.384;2024-03-06T03:26:46;8.97;;;6.30;;
13785;SDS011;47474;48.824;9.384;2024-03-06T03:29:14;7.70;;;6.33;;
13785;SDS011;47474;48.824;9.384;2024-03-06T03:31:41;7.43;;;6.30;;
13785;SDS011;47474;48.824;9.384;2024-03-06T03:34:08;10.97;;;6.67;;
13785;SDS011;47474;48.824;9.384;2024-03-06T03:36:39;7.57;;;6.50;;
13785;SDS011;47474;48.824;9.384;2024-03-06T03:39:06;8.23;;;6.47;;
13785;SDS011;47474;48.824;9.384;2024-03-06T03:41:38;6.17;;;5.57;;
13785;SDS011;47474;48.824;9.384;2024-03-06T03:44:08;6.23;;;5.63;;
13785;SDS011;47474;48.824;9.384;2024-03-06T03:46:36;7.80;;;6.27;;
13785;SDS011;47474;48.824;9.384;2024-03-06T03:49:03;6.80;;;6.07;;
13785;SDS011;47474;48.824;9.384;2024-03-06T03:51:29;6.80;;;6.13;;
13785;SDS011;47474;48.824;9.384;2024-03-06T03:53:56;7.00;;;5.70;;
13785;SDS011;47474;48.824;9.384;2024-03-06T03:56:22;8.07;;;6.20;;
13785;SDS011;47474;48.824;9.384;2024-03-06T03:58:49;5.73;;;5.13;;
13785;SDS011;47474;48.824;9.384;2024-03-06T04:01:15;7.83;;;5.83;;
13785;SDS011;47474;48.824;9.384;2024-03-06T04:03:43;5.83;;;5.20;;
13785;SDS011;47474;48.824;9.384;2024-03-06T04:06:10;7.23;;;6.43;;
13785;SDS011;47474;48.824;9.384;2024-03-06T04:08:36;10.73;;;6.53;;
13785;SDS011;47474;48.824;9.384;2024-03-06T04:11:03;7.03;;;6.10;;
13785;SDS011;47474;48.824;9.384;2024-03-06T04:13:30;7.73;;;6.27;;
13785;SDS011;47474;48.824;9.384;2024-03-06T04:15:56;8.13;;;6.77;;
13785;SDS011;47474;48.824;9.384;2024-03-06T04:18:23;7.30;;;5.67;;
13785;SDS011;47474;48.824;9.384;2024-03-06T04:20:51;6.50;;;5.70;;
13785;SDS011;47474;48.824;9.384;2024-03-06T04:23:17;8.70;;;5.90;;
13785;SDS011;47474;48.824;9.384;2024-03-06T04:25:44;7.83;;;5.60;;
13785;SDS011;47474;48.824;9.384;2024-03-06T04:28:10;8.10;;;6.10;;
13785;SDS011;47474;48.824;9.384;2024-03-06T04:30:38;6.17;;;5.57;;
13785;SDS011;47474;48.824;9.384;2024-03-06T04:33:04;5.90;;;5.30;;
13785;SDS011;47474;48.824;9.384;2024-03-06T04:35:31;7.37;;;5.70;;
13785;SDS011;47474;48.824;9.384;2024-03-06T04:37:58;6.83;;;6.20;;
13785;SDS011;47474;48.824;9.384;2024-03-06T04:40:27;7.57;;;6.23;;
13785;SDS011;47474;48.824;9.384;2024-03-06T04:42:53;8.67;;;5.83;;
13785;SDS011;47474;48.824;9.384;2024-03-06T04:45:21;8.90;;;7.47;;
13785;SDS011;47474;48.824;9.384;2024-03-06T04:47:47;10.13;;;8.40;;
13785;SDS011;47474;48.824;9.384;2024-03-06T04:50:14;10.80;;;7.70;;
13785;SDS011;47474;48.824;9.384;2024-03-06T04:52:40;9.00;;;7.77;;
13785;SDS011;47474;48.824;9.384;2024-03-06T04:55:09;9.40;;;7.90;;
13785;SDS011;47474;48.824;9.384;2024-03-06T04:57:36;7.17;;;6.37;;
13785;SDS011;47474;48.824;9.384;2024-03-06T05:00:03;7.70;;;6.33;;
13785;SDS011;47474;48.824;9.384;2024-03-06T05:02:31;7.07;;;5.50;;
13785;SDS011;47474;48.824;9.384;2024-03-06T05:04:59;6.27;;;5.77;;
13785;SDS011;47474;48.824;9.384;2024-03-06T05:07:25;6.20;;;5.60;;
13785;SDS011;47474;48.824;9.384;2024-03-06T05:09:52;7.10;;;6.17;;
13785;SDS011;47474;48.824;9.384;2024-03-06T05:12:20;6.03;;;5.43;;
13785;SDS011;47474;48.824;9.384;2024-03-06T05:14:46;6.37;;;5.77;;
13785;SDS011;47474;48.824;9.384;2024-03-06T05:17:13;7.40;;;6.23;;
13785;SDS011;47474;48.824;9.384;2024-03-06T05:19:40;7.53;;;6.73;;
13785;SDS011;47474;48.824;9.384;2024-03-06T05:22:06;7.60;;;6.87;;
13785;SDS011;47474;48.824;9.384;2024-03-06T05:24:33;7.53;;;6.53;;
13785;SDS011;47474;48.824;9.384;2024-03-06T05:26:59;7.57;;;6.87;;
13785;SDS011;47474;48.824;9.384;2024-03-06T05:29:27;8.50;;;7.60;;
13785;SDS011;47474;48.824;9.384;2024-03-06T05:31:54;8.20;;;7.40;;
13785;SDS011;47474;48.824;9.384;2024-03-06T05:34:20;8.33;;;6.93;;
13785;SDS011;47474;48.824;9.384;2024-03-06T05:36:47;6.83;;;6.10;;
13785;SDS011;47474;48.824;9.384;2024-03-06T05:39:13;7.30;;;6.57;;
13785;SDS011;47474;48.824;9.384;2024-03-06T05:41:40;9.87;;;6.50;;
13785;SDS011;47474;48.824;9.384;2024-03-06T05:44:07;6.47;;;5.87;;
13785;SDS011;47474;48.824;9.384;2024-03-06T05:46:34;7.57;;;5.80;;
13785;SDS011;47474;48.824;9.384;2024-03-06T05:49:01;8.43;;;5.87;;
13785;SDS011;47474;48.824;9.384;2024-03-06T05:51:29;9.93;;;5.73;;
13785;SDS011;47474;48.824;9.384;2024-03-06T05:53:56;7.33;;;6.03;;
13785;SDS011;47474;48.824;9.384;2024-03-06T05:56:22;6.73;;;4.73;;
13785;SDS011;47474;48.824;9.384;2024-03-06T05:58:49;6.03;;;5.47;;
13785;SDS011;47474;48.824;9.384;2024-03-06T06:01:15;5.50;;;4.97;;
13785;SDS011;47474;48.824;9.384;2024-03-06T06:03:46;5.83;;;5.27;;
13785;SDS011;47474;48.824;9.384;2024-03-06T06:06:14;7.27;;;5.70;;
13785;SDS011;47474;48.824;9.384;2024-03-06T06:08:40;7.10;;;6.10;;
13785;SDS011;47474;48.824;9.384;2024-03-06T06:11:07;7.53;;;6.13;;
13785;SDS011;47474;48.824;9.384;2024-03-06T06:13:34;7.10;;;5.50;;
13785;SDS011;47474;48.824;9.384;2024-03-06T06:16:00;6.13;;;5.33;;
13785;SDS011;47474;48.824;9.384;2024-03-06T06:18:27;6.03;;;5.30;;
13785;SDS011;47474;48.824;9.384;2024-03-06T06:20:55;6.57;;;5.20;;
13785;SDS011;47474;48.824;9.384;2024-03-06T06:23:22;6.03;;;5.53;;
13785;SDS011;47474;48.824;9.384;2024-03-06T06:25:48;6.13;;;5.53;;
13785;SDS011;47474;48.824;9.384;2024-03-06T06:28:15;7.10;;;5.90;;
13785;SDS011;47474;48.824;9.384;2024-03-06T06:30:41;5.80;;;5.07;;
13785;SDS011;47474;48.824;9.384;2024-03-06T06:33:08;6.23;;;5.57;;
13785;SDS011;47474;48.824;9.384;2024-03-06T06:35:34;8.37;;;6.10;;
13785;SDS011;47474;48.824;9.384;2024-03-06T06:38:02;6.60;;;6.00;;
13785;SDS011;47474;48.824;9.384;2024-03-06T06:40:29;5.93;;;5.43;;
13785;SDS011;47474;48.824;9.384;2024-03-06T06:42:56;7.03;;;6.20;;
13785;SDS011;47474;48.824;9.384;2024-03-06T06:45:24;6.80;;;5.23;;
13785;SDS011;47474;48.824;9.384;2024-03-06T06:47:51;6.37;;;5.77;;
13785;SDS011;47474;48.824;9.384;2024-03-06T06:50:18;5.93;;;5.33;;
13785;SDS011;47474;48.824;9.384;2024-03-06T06:52:47;6.13;;;5.53;;
13785;SDS011;47474;48.824;9.384;2024-03-06T06:55:15;8.83;;;5.93;;
13785;SDS011;47474;48.824;9.384;2024-03-06T06:57:42;6.03;;;5.40;;
13785;SDS011;47474;48.824;9.384;2024-03-06T07:00:09;7.87;;;6.07;;
13785;SDS011;47474;48.824;9.384;2024-03-06T07:02:36;5.67;;;5.07;;
13785;SDS011;47474;48.824;9.384;2024-03-06T07:05:03;6.03;;;5.43;;
13785;SDS011;47474;48.824;9.384;2024-03-06T07:07:30;8.17;;;5.13;;
13785;SDS011;47474;48.824;9.384;2024-03-06T07:09:57;6.03;;;5.03;;
13785;SDS011;47474;48.824;9.384;2024-03-06T07:12:24;5.13;;;4.33;;
13785;SDS011;47474;48.824;9.384;2024-03-06T07:14:51;7.43;;;5.20;;
13785;SDS011;47474;48.824;9.384;2024-03-06T07:17:17;4.97;;;4.47;;
13785;SDS011;47474;48.824;9.384;2024-03-06T07:19:44;5.63;;;4.77;;
13785;SDS011;47474;48.824;9.384;2024-03-06T07:22:10;6.53;;;5.23;;
13785;SDS011;47474;48.824;9.384;2024-03-06T07:24:37;6.83;;;5.10;;
13785;SDS011;47474;48.824;9.384;2024-03-06T07:27:04;6.73;;;5.40;;
13785;SDS011;47474;48.824;9.384;2024-03-06T07:29:32;6.27;;;5.13;;
13785;SDS011;47474;48.824;9.384;2024-03-06T07:31:58;5.27;;;4.77;;
13785;SDS011;47474;48.824;9.384;2024-03-06T07:34:25;6.33;;;5.33;;
13785;SDS011;47474;48.824;9.384;2024-03-06T07:36:52;6.17;;;5.57;;
13785;SDS011;47474;48.824;9.384;2024-03-06T07:39:18;7.33;;;5.07;;
13785;SDS011;47474;48.824;9.384;2024-03-06T07:41:45;6.07;;;5.43;;
13785;SDS011;47474;48.824;9.384;2024-03-06T07:44:12;8.07;;;6.00;;
13785;SDS011;47474;48.824;9.384;2024-03-06T07:46:40;7.70;;;6.13;;
13785;SDS011;47474;48.824;9.384;2024-03-06T07:49:06;7.40;;;6.53;;
13785;SDS011;47474;48.824;9.384;2024-03-06T07:51:33;6.80;;;6.10;;
13785;SDS011;47474;48.824;9.384;2024-03-06T07:54:00;7.07;;;6.33;;
13785;SDS011;47474;48.824;9.384;2024-03-06T07:56:29;6.87;;;6.10;;
13785;SDS011;47474;48.824;9.384;2024-03-06T07:58:55;8.17;;;5.93;;
13785;SDS011;47474;48.824;9.384;2024-03-06T08:01:22;6.30;;;5.70;;
13785;SDS011;47474;48.824;9.384;2024-03-06T08:03:50;7.07;;;6.17;;
13785;SDS011;47474;48.824;9.384;2024-03-06T08:06:17;7.30;;;5.60;;
13785;SDS011;47474;48.824;9.384;2024-03-06T08:08:44;7.07;;;5.40;;
13785;SDS011;47474;48.824;9.384;2024-03-06T08:11:12;6.60;;;5.13;;
13785;SDS011;47474;48.824;9.384;2024-03-06T08:13:38;6.63;;;5.93;;
13785;SDS011;47474;48.824;9.384;2024-03-06T08:16:05;6.23;;;5.70;;
13785;SDS011;47474;48.824;9.384;2024-03-06T08:18:32;7.70;;;6.90;;
13785;SDS011;47474;48.824;9.384;2024-03-06T08:21:00;10.53;;;6.97;;
13785;SDS011;47474;48.824;9.384;2024-03-06T08:23:26;6.90;;;6.20;;
13785;SDS011;47474;48.824;9.384;2024-03-06T08:25:53;7.93;;;7.00;;
13785;SDS011;47474;48.824;9.384;2024-03-06T08:28:20;7.83;;;6.97;;
13785;SDS011;47474;48.824;9.384;2024-03-06T08:30:46;8.03;;;7.17;;
13785;SDS011;47474;48.824;9.384;2024-03-06T08:33:13;7.53;;;6.87;;
13785;SDS011;47474;48.824;9.384;2024-03-06T08:35:40;9.80;;;7.63;;
13785;SDS011;47474;48.824;9.384;2024-03-06T08:38:08;8.37;;;7.47;;
13785;SDS011;47474;48.824;9.384;2024-03-06T08:40:34;10.20;;;7.47;;
13785;SDS011;47474;48.824;9.384;2024-03-06T08:43:02;7.83;;;6.67;;
13785;SDS011;47474;48.824;9.384;2024-03-06T08:45:29;8.20;;;6.97;;
13785;SDS011;47474;48.824;9.384;2024-03-06T08:47:56;8.83;;;7.40;;
13785;SDS011;47474;48.824;9.384;2024-03-06T08:50:22;8.97;;;6.67;;
13785;SDS011;47474;48.824;9.384;2024-03-06T08:52:48;10.70;;;7.23;;
13785;SDS011;47474;48.824;9.384;2024-03-06T08:55:16;7.20;;;6.30;;
13785;SDS011;47474;48.824;9.384;2024-03-06T08:57:43;8.27;;;7.13;;
13785;SDS011;47474;48.824;9.384;2024-03-06T09:00:10;7.13;;;6.40;;
13785;SDS011;47474;48.824;9.384;2024-03-06T09:02:37;7.77;;;7.07;;
13785;SDS011;47474;48.824;9.384;2024-03-06T09:05:05;7.60;;;6.90;;
13785;SDS011;47474;48.824;9.384;2024-03-06T09:07:34;8.87;;;6.37;;
13785;SDS011;47474;48.824;9.384;2024-03-06T09:10:03;7.97;;;7.13;;
13785;SDS011;47474;48.824;9.384;2024-03-06T09:12:32;9.07;;;7.20;;
13785;SDS011;47474;48.824;9.384;2024-03-06T09:14:59;10.27;;;7.17;;
13785;SDS011;47474;48.824;9.384;2024-03-06T09:17:26;7.77;;;6.90;;
13785;SDS011;47474;48.824;9.384;2024-03-06T09:19:52;9.10;;;7.73;;
13785;SDS011;47474;48.824;9.384;2024-03-06T09:22:19;8.10;;;7.30;;
13785;SDS011;47474;48.824;9.384;2024-03-06T09:24:45;9.93;;;7.83;;
13785;SDS011;47474;48.824;9.384;2024-03-06T09:27:13;9.20;;;8.33;;
13785;SDS011;47474;48.824;9.384;2024-03-06T09:29:41;8.57;;;7.70;;
13785;SDS011;47474;48.824;9.384;2024-03-06T09:32:08;8.90;;;7.50;;
13785;SDS011;47474;48.824;9.384;2024-03-06T09:34:34;8.63;;;7.73;;
13785;SDS011;47474;48.824;9.384;2024-03-06T09:37:01;9.83;;;8.50;;
13785;SDS011;47474;48.824;9.384;2024-03-06T09:39:28;8.97;;;8.03;;
13785;SDS011;47474;48.824;9.384;2024-03-06T09:41:55;9.57;;;8.63;;
13785;SDS011;47474;48.824;9.384;2024-03-06T09:44:22;12.20;;;8.20;;
13785;SDS011;47474;48.824;9.384;2024-03-06T09:46:49;8.90;;;7.97;;
13785;SDS011;47474;48.824;9.384;2024-03-06T09:49:17;10.03;;;7.90;;
13785;SDS011;47474;48.824;9.384;2024-03-06T09:51:45;11.63;;;8.50;;
13785;SDS011;47474;48.824;9.384;2024-03-06T09:54:13;10.47;;;8.80;;
13785;SDS011;47474;48.824;9.384;2024-03-06T09:56:41;9.50;;;8.30;;
13785;SDS011;47474;48.824;9.384;2024-03-06T09:59:09;8.40;;;7.47;;
13785;SDS011;47474;48.824;9.384;2024-03-06T10:01:35;10.03;;;8.53;;
13785;SDS011;47474;48.824;9.384;2024-03-06T10:04:20;9.57;;;7.97;;
13785;SDS011;47474;48.824;9.384;2024-03-06T10:06:47;8.40;;;7.10;;
13785;SDS011;47474;48.824;9.384;2024-03-06T10:09:16;10.23;;;7.17;;
13785;SDS011;47474;48.824;9.384;2024-03-06T10:11:43;8.47;;;7.60;;
13785;SDS011;47474;48.824;9.384;2024-03-06T10:14:10;7.97;;;7.17;;
13785;SDS011;47474;48.824;9.384;2024-03-06T10:16:37;10.30;;;7.57;;
13785;SDS011;47474;48.824;9.384;2024-03-06T10:19:14;10.10;;;7.57;;
13785;SDS011;47474;48.824;9.384;2024-03-06T10:21:43;9.70;;;8.40;;
13785;SDS011;47474;48.824;9.384;2024-03-06T10:24:10;8.77;;;7.87;;
13785;SDS011;47474;48.824;9.384;2024-03-06T10:26:38;8.93;;;8.07;;
13785;SDS011;47474;48.824;9.384;2024-03-06T10:29:06;9.70;;;8.70;;
13785;SDS011;47474;48.824;9.384;2024-03-06T10:31:32;11.33;;;8.70;;
13785;SDS011;47474;48.824;9.384;2024-03-06T10:33:59;10.00;;;8.73;;
13785;SDS011;47474;48.824;9.384;2024-03-06T10:36:26;10.23;;;8.73;;
13785;SDS011;47474;48.824;9.384;2024-03-06T10:38:54;10.30;;;8.30;;
13785;SDS011;47474;48.824;9.384;2024-03-06T10:41:22;9.53;;;8.37;;
13785;SDS011;47474;48.824;9.384;2024-03-06T10:43:50;9.03;;;8.13;;
13785;SDS011;47474;48.824;9.384;2024-03-06T10:46:19;9.27;;;7.87;;
13785;SDS011;47474;48.824;9.384;2024-03-06T10:48:46;10.13;;;9.10;;
13785;SDS011;47474;48.824;9.384;2024-03-06T10:51:15;11.40;;;10.20;;
13785;SDS011;47474;48.824;9.384;2024-03-06T10:53:42;12.43;;;10.80;;
13785;SDS011;47474;48.824;9.384;2024-03-06T10:56:10;10.67;;;9.57;;
13785;SDS011;47474;48.824;9.384;2024-03-06T10:58:37;10.87;;;9.00;;
13785;SDS011;47474;48.824;9.384;2024-03-06T11:01:05;10.20;;;9.17;;
13785;SDS011;47474;48.824;9.384;2024-03-06T11:03:32;10.77;;;9.63;;
13785;SDS011;47474;48.824;9.384;2024-03-06T11:06:01;11.90;;;10.57;;
13785;SDS011;47474;48.824;9.384;2024-03-06T11:08:29;12.03;;;10.63;;
13785;SDS011;47474;48.824;9.384;2024-03-06T11:13:47;11.50;;;10.30;;
13785;SDS011;47474;48.824;9.384;2024-03-06T11:16:13;11.43;;;10.30;;
13785;SDS011;47474;48.824;9.384;2024-03-06T11:18:41;10.67;;;9.40;;
13785;SDS011;47474;48.824;9.384;2024-03-06T11:27:02;12.53;;;10.63;;
13785;SDS011;47474;48.824;9.384;2024-03-06T11:32:26;11.00;;;9.53;;
13785;SDS011;47474;48.824;9.384;2024-03-06T11:34:53;14.63;;;10.73;;
13785;SDS011;47474;48.824;9.384;2024-03-06T11:37:20;11.83;;;9.57;;
13785;SDS011;47474;48.824;9.384;2024-03-06T11:39:48;11.93;;;10.43;;
13785;SDS011;47474;48.824;9.384;2024-03-06T11:42:15;13.07;;;10.53;;
13785;SDS011;47474;48.824;9.384;2024-03-06T11:44:52;13.63;;;11.10;;
13785;SDS011;47474;48.824;9.384;2024-03-06T11:47:19;13.00;;;10.27;;
13785;SDS011;47474;48.824;9.384;2024-03-06T11:49:46;12.03;;;10.20;;
13785;SDS011;47474;48.824;9.384;2024-03-06T11:52:12;12.93;;;10.93;;
13785;SDS011;47474;48.824;9.384;2024-03-06T11:54:39;13.43;;;9.90;;
13785;SDS011;47474;48.824;9.384;2024-03-06T11:57:05;13.67;;;11.43;;
13785;SDS011;47474;48.824;9.384;2024-03-06T11:59:34;12.70;;;11.20;;
13785;SDS011;47474;48.824;9.384;2024-03-06T12:02:03;13.13;;;11.23;;
13785;SDS011;47474;48.824;9.384;2024-03-06T12:04:31;13.30;;;11.30;;
13785;SDS011;47474;48.824;9.384;2024-03-06T12:06:59;15.13;;;10.93;;
13785;SDS011;47474;48.824;9.384;2024-03-06T12:09:30;11.23;;;10.00;;
13785;SDS011;47474;48.824;9.384;2024-03-06T12:11:56;12.20;;;10.27;;
13785;SDS011;47474;48.824;9.384;2024-03-06T12:14:23;11.30;;;9.87;;
13785;SDS011;47474;48.824;9.384;2024-03-06T12:16:55;13.20;;;11.50;;
13785;SDS011;47474;48.824;9.384;2024-03-06T12:19:23;15.10;;;11.90;;
13785;SDS011;47474;48.824;9.384;2024-03-06T12:21:52;13.10;;;11.57;;
13785;SDS011;47474;48.824;9.384;2024-03-06T12:24:19;13.03;;;11.47;;
13785;SDS011;47474;48.824;9.384;2024-03-06T12:26:45;12.67;;;11.13;;
13785;SDS011;47474;48.824;9.384;2024-03-06T12:29:16;14.47;;;11.13;;
13785;SDS011;47474;48.824;9.384;2024-03-06T12:31:43;13.37;;;10.90;;
13785;SDS011;47474;48.824;9.384;2024-03-06T12:34:13;16.50;;;13.00;;
13785;SDS011;47474;48.824;9.384;2024-03-06T12:36:40;12.33;;;10.73;;
13785;SDS011;47474;48.824;9.384;2024-03-06T12:39:07;12.60;;;11.27;;
13785;SDS011;47474;48.824;9.384;2024-03-06T12:41:38;13.43;;;11.43;;
13785;SDS011;47474;48.824;9.384;2024-03-06T12:44:05;14.47;;;12.33;;
13785;SDS011;47474;48.824;9.384;2024-03-06T12:46:31;12.50;;;10.93;;
13785;SDS011;47474;48.824;9.384;2024-03-06T12:48:58;15.10;;;12.37;;
13785;SDS011;47474;48.824;9.384;2024-03-06T12:51:26;13.57;;;12.17;;
13785;SDS011;47474;48.824;9.384;2024-03-06T12:53:52;14.57;;;11.70;;
13785;SDS011;47474;48.824;9.384;2024-03-06T12:56:19;15.10;;;11.83;;
13785;SDS011;47474;48.824;9.384;2024-03-06T12:58:45;14.93;;;11.87;;
13785;SDS011;47474;48.824;9.384;2024-03-06T13:01:12;15.57;;;12.73;;
13785;SDS011;47474;48.824;9.384;2024-03-06T13:03:38;15.93;;;12.37;;
13785;SDS011;47474;48.824;9.384;2024-03-06T13:06:05;15.80;;;12.33;;
13785;SDS011;47474;48.824;9.384;2024-03-06T13:08:33;14.90;;;11.97;;
13785;SDS011;47474;48.824;9.384;2024-03-06T13:10:59;13.47;;;12.00;;
13785;SDS011;47474;48.824;9.384;2024-03-06T13:13:26;15.50;;;12.20;;
13785;SDS011;47474;48.824;9.384;2024-03-06T13:15:53;16.17;;;13.33;;
13785;SDS011;47474;48.824;9.384;2024-03-06T13:18:20;14.77;;;11.87;;
13785;SDS011;47474;48.824;9.384;2024-03-06T13:20:47;13.40;;;12.00;;
13785;SDS011;47474;48.824;9.384;2024-03-06T13:23:14;15.83;;;13.13;;
13785;SDS011;47474;48.824;9.384;2024-03-06T13:25:42;15.03;;;12.27;;
13785;SDS011;47474;48.824;9.384;2024-03-06T13:28:10;18.47;;;13.53;;
13785;SDS011;47474;48.824;9.384;2024-03-06T13:30:37;15.73;;;12.73;;
13785;SDS011;47474;48.824;9.384;2024-03-06T13:33:04;15.13;;;12.73;;
13785;SDS011;47474;48.824;9.384;2024-03-06T13:35:30;14.90;;;12.50;;
13785;SDS011;47474;48.824;9.384;2024-03-06T13:37:57;14.87;;;12.13;;
13785;SDS011;47474;48.824;9.384;2024-03-06T13:40:24;15.20;;;12.47;;
13785;SDS011;47474;48.824;9.384;2024-03-06T13:42:53;16.40;;;13.70;;
13785;SDS011;47474;48.824;9.384;2024-03-06T13:45:19;15.83;;;13.17;;
13785;SDS011;47474;48.824;9.384;2024-03-06T13:47:46;15.67;;;13.30;;
13785;SDS011;47474;48.824;9.384;2024-03-06T13:50:14;14.87;;;11.93;;
13785;SDS011;47474;48.824;9.384;2024-03-06T13:52:41;14.50;;;11.67;;
13785;SDS011;47474;48.824;9.384;2024-03-06T13:55:08;18.43;;;13.37;;
13785;SDS011;47474;48.824;9.384;2024-03-06T13:57:36;15.07;;;11.93;;
13785;SDS011;47474;48.824;9.384;2024-03-06T14:00:05;15.07;;;12.07;;
13785;SDS011;47474;48.824;9.384;2024-03-06T14:02:37;15.63;;;11.93;;
13785;SDS011;47474;48.824;9.384;2024-03-06T14:05:04;15.60;;;12.07;;
13785;SDS011;47474;48.824;9.384;2024-03-06T14:07:30;15.80;;;13.00;;
13785;SDS011;47474;48.824;9.384;2024-03-06T14:09:57;16.43;;;12.70;;
13785;SDS011;47474;48.824;9.384;2024-03-06T14:12:24;16.57;;;12.23;;
13785;SDS011;47474;48.824;9.384;2024-03-06T14:14:50;16.70;;;13.27;;
13785;SDS011;47474;48.824;9.384;2024-03-06T14:17:18;13.73;;;12.27;;
13785;SDS011;47474;48.824;9.384;2024-03-06T14:19:44;14.93;;;11.57;;
13785;SDS011;47474;48.824;9.384;2024-03-06T14:22:11;14.10;;;11.40;;
13785;SDS011;47474;48.824;9.384;2024-03-06T14:24:37;13.93;;;11.20;;
13785;SDS011;47474;48.824;9.384;2024-03-06T14:27:04;11.97;;;10.20;;
13785;SDS011;47474;48.824;9.384;2024-03-06T14:29:31;14.20;;;10.60;;
13785;SDS011;47474;48.824;9.384;2024-03-06T14:31:58;12.50;;;10.40;;
13785;SDS011;47474;48.824;9.384;2024-03-06T14:34:26;11.27;;;9.80;;
13785;SDS011;47474;48.824;9.384;2024-03-06T14:36:52;12.17;;;9.87;;
13785;SDS011;47474;48.824;9.384;2024-03-06T14:39:19;11.73;;;9.47;;
13785;SDS011;47474;48.824;9.384;2024-03-06T14:41:47;12.20;;;10.03;;
13785;SDS011;47474;48.824;9.384;2024-03-06T14:44:13;9.87;;;8.63;;
13785;SDS011;47474;48.824;9.384;2024-03-06T14:46:40;10.53;;;8.87;;
13785;SDS011;47474;48.824;9.384;2024-03-06T14:49:06;12.70;;;9.43;;
13785;SDS011;47474;48.824;9.384;2024-03-06T14:51:34;13.40;;;9.97;;